Time;durP1;ratioP1;P1;durP2;ratioP2;P2;SDS_P1;SDS_P2;PMS_P1;PMS_P2;Temp;Humidity;BMP_temperature;BMP_pressure;BME280_temperature;BME280_humidity;BME280_pressure;Samples;Min_cycle;Max_cycle;Signal;HPM_P1;HPM_P2
2023/10/17 00:02:27;;;;;;;0.80;0.70;;;22.70;54.70;;;;;;4971846;28;89312;-87
2023/10/17 00:04:52;;;;;;;3.33;1.45;;;22.60;54.80;;;;;;4969425;28;87584;-88
2023/10/17 00:07:20;;;;;;;1.63;1.00;;;22.60;54.80;;;;;;4970304;28;89804;-88
2023/10/17 00:09:48;;;;;;;1.67;0.93;;;22.60;54.80;;;;;;4972030;28;90754;-89
2023/10/17 00:15:16;;;;;;;1.10;0.85;;;22.60;55.10;;;;;;4972853;28;88605;-90
2023/10/17 00:17:33;;;;;;;1.80;1.08;;;22.60;54.90;;;;;;4971655;28;87663;-89
2023/10/17 00:19:58;;;;;;;0.82;0.75;;;22.60;55.00;;;;;;4955876;28;89124;-89
2023/10/17 00:22:24;;;;;;;1.08;0.73;;;22.50;54.90;;;;;;4971273;28;89136;-90
2023/10/17 00:25:09;;;;;;;1.48;0.80;;;22.50;54.90;;;;;;4970462;28;87323;-88
2023/10/17 00:27:34;;;;;;;1.20;0.90;;;22.50;55.00;;;;;;4972376;28;87362;-88
2023/10/17 00:30:00;;;;;;;1.55;0.90;;;22.50;55.00;;;;;;4972031;28;89327;-88
2023/10/17 00:32:31;;;;;;;1.42;0.90;;;22.50;55.00;;;;;;4971220;28;86768;-89
2023/10/17 00:35:19;;;;;;;3.35;0.95;;;22.50;55.10;;;;;;4968420;28;87997;-90
2023/10/17 00:37:57;;;;;;;1.60;1.30;;;22.40;55.20;;;;;;4987348;28;89615;-91
2023/10/17 00:40:45;;;;;;;0.88;0.85;;;22.50;55.20;;;;;;4968673;28;91471;-89
2023/10/17 00:43:14;;;;;;;1.27;1.00;;;22.40;55.10;;;;;;4970543;28;91677;-90
2023/10/17 00:45:50;;;;;;;;;;;22.40;55.10;;;;;;4972329;28;87389;-88
2023/10/17 00:48:22;;;;;;;1.48;0.90;;;22.40;55.00;;;;;;4987755;28;88884;-88
2023/10/17 00:50:57;;;;;;;1.50;0.98;;;22.40;55.10;;;;;;5019760;22;88381;-87
2023/10/17 00:53:24;;;;;;;1.58;1.10;;;22.40;55.10;;;;;;5029112;27;87823;-87
2023/10/17 00:55:51;;;;;;;1.48;0.95;;;22.40;55.10;;;;;;5027938;27;88329;-86
2023/10/17 01:01:13;;;;;;;1.60;1.20;;;22.30;55.10;;;;;;5027613;27;89354;-87
2023/10/17 01:03:43;;;;;;;1.57;0.67;;;22.40;55.20;;;;;;5027786;27;88997;-86
2023/10/17 01:08:54;;;;;;;1.48;0.95;;;22.30;55.00;;;;;;5031480;27;92429;-86
2023/10/17 01:11:20;;;;;;;2.15;1.20;;;22.30;55.10;;;;;;5027461;27;90059;-86
2023/10/17 01:13:49;;;;;;;2.33;1.00;;;22.30;55.20;;;;;;5026419;27;88975;-87
2023/10/17 01:16:16;;;;;;;1.40;0.90;;;22.30;55.20;;;;;;5029217;27;87835;-87
2023/10/17 01:18:46;;;;;;;1.48;1.25;;;22.30;55.20;;;;;;5029049;27;89181;-87
2023/10/17 01:21:21;;;;;;;1.95;0.90;;;22.20;55.20;;;;;;5032135;27;87653;-86
2023/10/17 01:23:48;;;;;;;1.10;0.88;;;22.20;55.30;;;;;;5028740;27;89727;-87
2023/10/17 01:26:21;;;;;;;1.00;0.80;;;22.20;55.20;;;;;;5028309;27;87675;-86
2023/10/17 01:28:52;;;;;;;1.75;0.70;;;22.20;55.40;;;;;;5028955;27;87700;-86
2023/10/17 01:31:25;;;;;;;1.02;0.90;;;22.20;55.30;;;;;;5029630;27;91189;-87
2023/10/17 01:33:55;;;;;;;1.23;1.05;;;22.20;55.20;;;;;;5030220;27;90804;-87
2023/10/17 01:36:21;;;;;;;0.80;0.70;;;22.20;55.20;;;;;;5031979;27;86878;-86
2023/10/17 01:38:50;;;;;;;0.80;0.80;;;22.20;55.30;;;;;;5028955;27;87207;-87
2023/10/17 01:41:20;;;;;;;1.63;0.77;;;22.20;55.30;;;;;;5030590;27;88390;-87
2023/10/17 01:43:49;;;;;;;1.25;0.90;;;22.20;55.30;;;;;;5029389;27;91862;-86
2023/10/17 01:46:17;;;;;;;1.08;0.82;;;22.20;55.40;;;;;;5029608;27;87289;-87
2023/10/17 01:48:49;;;;;;;0.90;0.70;;;22.20;55.40;;;;;;5029767;27;87510;-85
2023/10/17 01:51:19;;;;;;;0.80;0.80;;;22.20;55.50;;;;;;5031375;27;88304;-87
2023/10/17 01:53:50;;;;;;;2.08;0.85;;;22.20;55.40;;;;;;5023369;28;88843;-87
2023/10/17 01:56:16;;;;;;;2.15;0.95;;;22.10;55.40;;;;;;5028641;27;89112;-86
2023/10/17 01:58:50;;;;;;;1.20;1.10;;;22.10;55.50;;;;;;5028582;27;88014;-86
2023/10/17 02:01:26;;;;;;;1.48;0.90;;;22.10;55.40;;;;;;5029587;27;88746;-87
2023/10/17 02:04:12;;;;;;;1.98;0.88;;;22.10;55.60;;;;;;5029366;27;89746;-87
2023/10/17 02:06:38;;;;;;;1.13;1.00;;;22.10;55.30;;;;;;5029109;27;87442;-87
2023/10/17 02:11:50;;;;;;;1.20;0.90;;;22.10;55.30;;;;;;5030442;27;87553;-87
2023/10/17 02:14:16;;;;;;;2.80;0.88;;;22.10;55.30;;;;;;5029007;27;89931;-87
2023/10/17 02:16:42;;;;;;;0.80;0.77;;;22.10;55.30;;;;;;5028187;27;88014;-87
2023/10/17 02:19:07;;;;;;;1.75;1.10;;;22.10;55.30;;;;;;5028663;27;90886;-86
2023/10/17 02:21:38;;;;;;;0.90;0.85;;;22.10;55.40;;;;;;5028846;27;89536;-87
2023/10/17 02:24:06;;;;;;;2.78;1.02;;;22.10;55.30;;;;;;5046492;27;89621;-87
2023/10/17 02:26:42;;;;;;;1.13;0.90;;;22.10;55.20;;;;;;5027808;27;88033;-88
2023/10/17 02:29:10;;;;;;;3.10;0.88;;;22.00;55.40;;;;;;5028270;27;88072;-88
2023/10/17 02:31:36;;;;;;;1.67;0.90;;;22.00;55.20;;;;;;5029464;27;88292;-86
2023/10/17 02:34:02;;;;;;;1.00;0.90;;;22.00;55.30;;;;;;5028177;27;90007;-88
2023/10/17 02:36:27;;;;;;;1.15;0.98;;;22.00;55.20;;;;;;5027343;27;87783;-87
2023/10/17 02:38:53;;;;;;;0.73;0.73;;;22.00;55.20;;;;;;5030438;28;90561;-86
2023/10/17 02:41:19;;;;;;;1.42;1.00;;;22.00;55.20;;;;;;5030755;27;90824;-87
2023/10/17 02:43:46;;;;;;;1.33;0.93;;;22.00;55.20;;;;;;5029837;27;91041;-88
2023/10/17 02:46:14;;;;;;;1.13;0.90;;;22.00;55.10;;;;;;5031908;27;88339;-87
2023/10/17 02:48:42;;;;;;;1.30;0.90;;;21.90;55.20;;;;;;5028577;27;87768;-88
2023/10/17 02:51:53;;;;;;;1.13;0.93;;;22.00;55.30;;;;;;5027804;27;89196;-86
2023/10/17 02:53:58;;;;;;;0.80;0.80;;;22.00;55.20;;;;;;5022450;27;93692;-86
2023/10/17 02:56:25;;;;;;;1.13;1.00;;;22.00;55.20;;;;;;5030837;27;87609;-88
2023/10/17 02:59:12;;;;;;;1.00;0.90;;;21.90;55.70;;;;;;5032353;27;87612;-87
2023/10/17 03:01:42;;;;;;;1.55;1.00;;;21.90;55.10;;;;;;5028646;27;88787;-87
2023/10/17 03:04:10;;;;;;;1.15;0.80;;;21.90;55.10;;;;;;5029748;27;90069;-86
2023/10/17 03:06:40;;;;;;;1.42;1.10;;;21.90;55.10;;;;;;5031772;27;87930;-86
2023/10/17 03:09:16;;;;;;;1.15;0.90;;;21.90;55.30;;;;;;5029656;27;89341;-88
2023/10/17 03:12:07;;;;;;;1.10;0.90;;;21.90;55.30;;;;;;5028758;27;91344;-86
2023/10/17 03:14:40;;;;;;;1.25;1.00;;;21.90;55.40;;;;;;5030577;27;91107;-87
2023/10/17 03:17:09;;;;;;;1.23;0.98;;;21.90;55.40;;;;;;5018490;27;87420;-87
2023/10/17 03:19:36;;;;;;;2.03;1.02;;;21.90;55.30;;;;;;5031407;27;89250;-86
2023/10/17 03:22:27;;;;;;;1.67;0.90;;;21.90;55.10;;;;;;5032086;27;90921;-87
2023/10/17 03:25:00;;;;;;;2.08;1.10;;;21.90;55.30;;;;;;5032616;27;89117;-86
2023/10/17 03:27:36;;;;;;;1.63;1.15;;;21.90;55.20;;;;;;5033003;27;87344;-87
2023/10/17 03:30:11;;;;;;;1.05;0.93;;;21.80;55.20;;;;;;5033961;27;88496;-87
2023/10/17 03:32:53;;;;;;;1.00;0.88;;;21.80;55.00;;;;;;5031427;27;89378;-86
2023/10/17 03:35:22;;;;;;;1.20;1.08;;;21.80;55.20;;;;;;5029222;27;87580;-85
2023/10/17 03:37:48;;;;;;;2.15;0.75;;;21.80;54.90;;;;;;5047950;27;88384;-86
2023/10/17 03:40:19;;;;;;;1.15;0.80;;;21.80;55.20;;;;;;5029838;27;88726;-85
2023/10/17 03:42:53;;;;;;;1.13;1.00;;;21.80;55.20;;;;;;5031235;27;88129;-85
2023/10/17 03:45:25;;;;;;;1.60;0.80;;;21.80;55.10;;;;;;5031446;27;88491;-86
2023/10/17 03:48:04;;;;;;;0.90;0.90;;;21.80;55.10;;;;;;5029201;27;87507;-87
2023/10/17 03:50:48;;;;;;;1.05;0.90;;;21.80;55.20;;;;;;5031051;27;88063;-88
2023/10/17 03:53:30;;;;;;;0.73;0.73;;;21.80;55.10;;;;;;5030740;27;89478;-86
2023/10/17 03:56:03;;;;;;;1.30;1.00;;;21.80;55.10;;;;;;5031175;27;88927;-86
2023/10/17 04:01:06;;;;;;;2.53;1.27;;;21.80;55.20;;;;;;5031823;27;87400;-87
2023/10/17 04:03:34;;;;;;;1.20;0.73;;;21.80;55.10;;;;;;5031809;27;88450;-86
2023/10/17 04:08:49;;;;;;;1.65;0.90;;;21.80;55.10;;;;;;5031693;27;87272;-85
2023/10/17 04:11:39;;;;;;;1.60;1.00;;;21.80;55.10;;;;;;5046140;27;87992;-87
2023/10/17 04:14:09;;;;;;;1.00;0.90;;;21.80;55.10;;;;;;5028944;27;92167;-86
2023/10/17 04:16:38;;;;;;;1.25;0.95;;;21.80;55.10;;;;;;5029743;27;90150;-86
2023/10/17 04:19:07;;;;;;;1.13;1.02;;;21.80;55.10;;;;;;5029982;27;87687;-86
2023/10/17 04:21:45;;;;;;;0.90;0.90;;;21.80;55.10;;;;;;5031941;27;87854;-87
2023/10/17 04:24:10;;;;;;;1.80;0.90;;;21.80;55.10;;;;;;5031011;27;90369;-87
2023/10/17 04:26:36;;;;;;;1.33;0.90;;;21.70;55.10;;;;;;5028155;27;89914;-86
2023/10/17 04:29:21;;;;;;;0.90;0.70;;;21.70;55.00;;;;;;5029259;27;88748;-88
2023/10/17 04:31:47;;;;;;;1.30;0.90;;;21.70;55.10;;;;;;5028972;27;87970;-87
2023/10/17 04:34:26;;;;;;;1.20;1.00;;;21.70;55.00;;;;;;5027290;27;92515;-88
2023/10/17 04:36:56;;;;;;;0.90;0.70;;;21.70;54.90;;;;;;5028248;27;88810;-88
2023/10/17 04:44:18;;;;;;;0.70;0.70;;;21.70;55.10;;;;;;5030300;27;87943;-89
2023/10/17 04:46:51;;;;;;;0.93;0.82;;;21.70;55.00;;;;;;5029771;27;89952;-87
2023/10/17 04:49:21;;;;;;;1.00;0.90;;;21.70;55.00;;;;;;5029246;27;87464;-88
2023/10/17 04:51:52;;;;;;;0.82;0.77;;;21.70;55.30;;;;;;5029611;27;87608;-88
2023/10/17 04:54:39;;;;;;;0.80;0.73;;;21.70;55.20;;;;;;5030334;27;90943;-89
2023/10/17 04:57:21;;;;;;;1.23;0.95;;;21.70;55.10;;;;;;5030447;27;92839;-88
2023/10/17 06:19:13;;;;;;;4.47;1.80;;;21.60;54.20;;;;;;5019646;27;87976;-88
2023/10/17 06:21:54;;;;;;;5.13;2.10;;;21.60;54.30;;;;;;5022250;27;90276;-89
2023/10/17 06:28:13;;;;;;;3.47;1.90;;;21.60;55.10;;;;;;5033875;27;87137;-89
2023/10/17 06:30:26;;;;;;;5.50;2.05;;;21.60;55.20;;;;;;5033403;27;90644;-87
2023/10/17 06:35:31;;;;;;;3.00;1.98;;;21.60;55.10;;;;;;5033880;27;87653;-90
2023/10/17 06:37:59;;;;;;;6.60;2.50;;;21.60;55.10;;;;;;5034173;27;87768;-88
2023/10/17 06:40:33;;;;;;;3.15;2.05;;;21.60;55.30;;;;;;5033097;27;87437;-90
2023/10/17 06:43:12;;;;;;;5.78;2.10;;;21.60;55.30;;;;;;5027289;27;89972;-88
2023/10/17 06:45:51;;;;;;;4.18;2.10;;;21.60;55.30;;;;;;5045955;27;89725;-89
2023/10/17 06:48:18;;;;;;;4.43;1.67;;;21.60;55.40;;;;;;5026755;27;87814;-88
2023/10/17 06:53:41;;;;;;;5.93;1.67;;;21.50;55.40;;;;;;5014505;27;88099;-89
2023/10/17 06:56:09;;;;;;;4.28;1.50;;;21.60;55.50;;;;;;5029834;27;91392;-90
2023/10/17 06:58:36;;;;;;;5.07;1.85;;;21.60;55.40;;;;;;5031608;27;87729;-89
2023/10/17 07:01:04;;;;;;;5.70;2.15;;;21.60;55.70;;;;;;5029323;27;88888;-88
2023/10/17 07:03:37;;;;;;;5.65;2.45;;;21.50;55.40;;;;;;5031569;27;90291;-88
2023/10/17 07:06:12;;;;;;;6.68;2.08;;;21.60;55.40;;;;;;5031204;28;89764;-88
2023/10/17 07:08:38;;;;;;;3.67;1.83;;;21.60;55.70;;;;;;5030873;27;88483;-90
2023/10/17 07:14:41;;;;;;;8.13;2.35;;;21.60;55.80;;;;;;5033260;27;89113;-89
2023/10/17 07:16:48;;;;;;;;;;;21.60;55.90;;;;;;5026852;27;87689;-87
2023/10/17 07:24:34;;;;;;;6.65;2.13;;;21.70;56.00;;;;;;5035426;27;88095;-89
2023/10/17 07:27:04;;;;;;;10.50;3.20;;;21.60;55.80;;;;;;5034257;27;92980;-88
2023/10/17 07:29:33;;;;;;;8.75;3.10;;;21.60;55.90;;;;;;5029779;27;87565;-89
2023/10/17 07:32:09;;;;;;;6.45;2.38;;;21.60;55.90;;;;;;5032811;27;88115;-92
2023/10/17 07:34:35;;;;;;;9.70;2.88;;;21.60;55.80;;;;;;5047806;27;90921;-90
2023/10/17 07:39:59;;;;;;;10.88;3.95;;;21.60;55.30;;;;;;5032060;27;87395;-89
2023/10/17 07:42:31;;;;;;;12.63;3.85;;;21.60;55.10;;;;;;5031918;28;89156;-89
2023/10/17 07:45:01;;;;;;;8.95;3.25;;;21.60;55.00;;;;;;5033245;27;94692;-89
2023/10/17 07:47:35;;;;;;;8.80;3.47;;;21.60;55.30;;;;;;5025660;27;90191;-87
2023/10/17 07:50:01;;;;;;;11.90;3.53;;;21.60;55.00;;;;;;5034745;27;87948;-88
2023/10/17 07:52:31;;;;;;;14.32;4.43;;;21.60;54.40;;;;;;5045468;27;88512;-88
2023/10/17 07:55:46;;;;;;;11.43;4.30;;;21.60;54.80;;;;;;5029064;27;90132;-86
2023/10/17 07:57:51;;;;;;;9.45;3.45;;;21.60;55.00;;;;;;5017520;27;87204;-89
2023/10/17 08:00:27;;;;;;;10.73;3.78;;;21.60;55.00;;;;;;5031261;27;88619;-88
2023/10/17 08:03:00;;;;;;;9.45;3.45;;;21.60;55.00;;;;;;5032046;28;91038;-88
2023/10/17 08:05:36;;;;;;;11.85;3.30;;;21.60;54.70;;;;;;5028483;27;90261;-86
2023/10/17 08:08:08;;;;;;;13.07;3.75;;;21.60;54.90;;;;;;5026922;27;88608;-87
2023/10/17 08:10:35;;;;;;;9.98;3.80;;;21.60;54.50;;;;;;5026400;27;87456;-85
2023/10/17 08:13:02;;;;;;;11.85;3.55;;;21.60;54.80;;;;;;5033211;27;88130;-88
2023/10/17 08:15:52;;;;;;;9.50;3.78;;;21.70;54.80;;;;;;5024139;27;90744;-88
2023/10/17 08:18:23;;;;;;;;;;;21.70;54.80;;;;;;5036119;27;87317;-88
2023/10/17 08:23:27;;;;;;;9.80;3.50;;;21.70;54.90;;;;;;5033292;27;87709;-89
2023/10/17 08:26:00;;;;;;;13.32;4.32;;;21.70;54.90;;;;;;5030731;28;91048;-89
2023/10/17 08:36:43;;;;;;;9.80;3.10;;;21.70;55.10;;;;;;5030142;27;87981;-90
2023/10/17 08:41:57;;;;;;;11.88;3.63;;;21.60;52.70;;;;;;5029476;27;87679;-85
2023/10/17 08:44:29;;;;;;;11.32;3.58;;;21.70;54.10;;;;;;5026200;27;88075;-86
2023/10/17 08:47:07;;;;;;;13.55;3.75;;;21.70;54.50;;;;;;5028431;27;89100;-87
2023/10/17 08:49:33;;;;;;;11.55;3.92;;;21.60;54.40;;;;;;5031892;27;88559;-89
2023/10/17 08:51:58;;;;;;;11.75;3.38;;;21.70;54.50;;;;;;5030230;27;88771;-90
2023/10/17 08:54:30;;;;;;;10.00;3.63;;;21.70;54.50;;;;;;5031102;27;90135;-90
2023/10/17 08:57:00;;;;;;;10.77;4.07;;;21.60;54.40;;;;;;5028666;27;93178;-89
2023/10/17 09:04:50;;;;;;;9.10;3.03;;;21.70;56.70;;;;;;5027675;27;87810;-88
2023/10/17 09:07:22;;;;;;;13.27;4.15;;;21.70;55.50;;;;;;5029474;27;91506;-91
2023/10/17 09:09:54;;;;;;;7.85;2.85;;;21.70;55.50;;;;;;5035071;27;89894;-87
2023/10/17 09:12:24;;;;;;;12.80;4.13;;;21.60;55.10;;;;;;5031432;28;87243;-92
2023/10/17 09:14:52;;;;;;;8.57;3.08;;;21.70;55.00;;;;;;5026795;27;89109;-89
2023/10/17 09:19:52;;;;;;;9.00;3.38;;;21.70;54.90;;;;;;5027310;27;89115;-87
2023/10/17 09:22:44;;;;;;;8.77;3.38;;;21.70;54.90;;;;;;5026802;27;87447;-89
2023/10/17 09:25:19;;;;;;;6.20;3.25;;;21.70;54.70;;;;;;5023547;27;87955;-87
2023/10/17 09:27:49;;;;;;;9.98;3.45;;;21.70;54.70;;;;;;5024847;27;88186;-87
2023/10/17 09:30:17;;;;;;;10.15;3.55;;;21.70;54.70;;;;;;5027001;27;89056;-86
2023/10/17 09:32:44;;;;;;;8.82;3.72;;;21.70;54.70;;;;;;5022463;27;87339;-87
2023/10/17 09:35:15;;;;;;;10.10;3.85;;;21.70;54.60;;;;;;5012880;27;87219;-86
2023/10/17 09:37:43;;;;;;;6.18;2.97;;;21.70;54.30;;;;;;5025385;27;89198;-86
2023/10/17 09:40:14;;;;;;;9.25;3.25;;;21.70;54.50;;;;;;5027480;27;88473;-88
2023/10/17 09:42:49;;;;;;;9.40;3.63;;;21.70;54.70;;;;;;5032012;27;88378;-91
2023/10/17 09:45:16;;;;;;;9.25;3.50;;;21.70;54.70;;;;;;5031616;27;90505;-88
2023/10/17 09:47:47;;;;;;;9.68;3.50;;;21.80;54.50;;;;;;5026723;27;89279;-87
2023/10/17 09:50:16;;;;;;;6.65;2.80;;;21.80;54.60;;;;;;5025491;27;87777;-86
2023/10/17 09:52:51;;;;;;;5.22;2.22;;;21.70;53.10;;;;;;5028592;27;87295;-86
2023/10/17 09:55:18;;;;;;;8.07;2.92;;;21.80;51.50;;;;;;5021576;27;89106;-85
2023/10/17 09:57:50;;;;;;;10.48;2.70;;;21.80;51.70;;;;;;5027302;27;88490;-86
2023/10/17 10:00:38;;;;;;;7.80;3.22;;;21.80;53.00;;;;;;5025240;27;89570;-87
2023/10/17 10:03:06;;;;;;;7.88;3.50;;;21.80;53.60;;;;;;5026877;27;87501;-87
2023/10/17 10:05:32;;;;;;;10.40;3.95;;;21.80;54.00;;;;;;5026185;27;88769;-86
2023/10/17 10:08:27;;;;;;;6.00;3.80;;;21.80;54.30;;;;;;5024970;27;90848;-86
2023/10/17 10:10:53;;;;;;;11.10;3.63;;;21.80;54.50;;;;;;5025105;27;90669;-85
2023/10/17 10:13:22;;;;;;;9.02;3.25;;;21.80;54.50;;;;;;5025755;27;87747;-86
2023/10/17 10:16:08;;;;;;;7.43;3.38;;;21.80;54.60;;;;;;5024304;27;87839;-89
2023/10/17 10:18:39;;;;;;;10.05;3.55;;;21.80;54.70;;;;;;5031493;27;89116;-89
2023/10/17 10:21:08;;;;;;;6.25;3.60;;;21.80;54.60;;;;;;5025517;27;90153;-88
2023/10/17 10:23:39;;;;;;;8.77;3.30;;;21.80;54.50;;;;;;5014548;27;87726;-87
2023/10/17 10:26:10;;;;;;;6.97;3.47;;;21.90;54.40;;;;;;5022559;27;87069;-86
2023/10/17 10:28:38;;;;;;;6.95;3.33;;;21.80;54.40;;;;;;5025314;27;88242;-88
2023/10/17 10:31:22;;;;;;;9.82;3.25;;;21.80;53.80;;;;;;5023667;27;89660;-84
2023/10/17 10:34:06;;;;;;;11.27;3.75;;;21.90;53.90;;;;;;5026591;27;88498;-85
2023/10/17 10:36:33;;;;;;;7.20;3.20;;;21.80;53.70;;;;;;5021968;27;87182;-85
2023/10/17 10:39:12;;;;;;;5.43;2.05;;;21.90;54.30;;;;;;5027299;27;91051;-88
2023/10/17 10:41:54;;;;;;;5.63;2.30;;;21.80;48.50;;;;;;5022182;27;89757;-85
2023/10/17 10:44:20;;;;;;;4.35;2.35;;;21.80;45.80;;;;;;5027095;27;87728;-86
2023/10/17 10:46:46;;;;;;;6.68;2.88;;;21.70;42.80;;;;;;5022193;27;89691;-84
2023/10/17 10:49:12;;;;;;;8.13;2.60;;;21.60;41.30;;;;;;5025143;27;88269;-86
2023/10/17 10:51:44;;;;;;;3.80;3.03;;;21.50;41.90;;;;;;5025132;27;90214;-83
2023/10/17 10:54:10;;;;;;;9.80;3.17;;;21.50;41.70;;;;;;5023559;27;87079;-86
2023/10/17 10:56:37;;;;;;;4.78;3.05;;;21.50;43.30;;;;;;5021829;27;87829;-85
2023/10/17 10:59:04;;;;;;;9.55;3.38;;;21.60;44.30;;;;;;5027307;27;88736;-84
2023/10/17 11:01:30;;;;;;;4.13;3.10;;;21.70;44.40;;;;;;5027050;27;89808;-84
2023/10/17 11:03:58;;;;;;;5.45;3.45;;;21.70;44.70;;;;;;5016345;27;87300;-89
2023/10/17 11:06:27;;;;;;;5.63;2.97;;;21.70;44.60;;;;;;5013959;27;88603;-85
2023/10/17 11:08:56;;;;;;;5.25;2.90;;;21.70;45.00;;;;;;5027954;27;92710;-85
2023/10/17 11:11:22;;;;;;;;;;;21.70;45.10;;;;;;5026867;27;89105;-85
2023/10/17 11:13:54;;;;;;;5.22;2.88;;;21.70;45.40;;;;;;5030718;27;88866;-86
2023/10/17 11:16:25;;;;;;;7.80;3.38;;;21.70;45.40;;;;;;5024392;27;88839;-85
2023/10/17 11:18:53;;;;;;;5.78;3.13;;;21.70;45.70;;;;;;5025599;27;89653;-85
2023/10/17 11:21:20;;;;;;;6.38;3.10;;;21.70;46.10;;;;;;5026176;27;88104;-84
2023/10/17 11:23:55;;;;;;;5.35;3.17;;;21.70;46.00;;;;;;5017840;27;88198;-85
2023/10/17 11:26:25;;;;;;;5.47;2.92;;;21.70;46.20;;;;;;5026571;27;94353;-85
2023/10/17 11:28:52;;;;;;;6.55;3.13;;;21.70;46.20;;;;;;5025262;27;88550;-84
2023/10/17 11:31:22;;;;;;;7.15;3.10;;;21.70;46.30;;;;;;5026623;27;90845;-85
2023/10/17 11:33:54;;;;;;;5.85;3.60;;;21.70;46.30;;;;;;5025630;27;87491;-87
2023/10/17 11:36:22;;;;;;;5.15;2.60;;;21.70;47.20;;;;;;5028447;27;90754;-86
2023/10/17 11:38:58;;;;;;;6.20;2.70;;;21.70;45.60;;;;;;5027741;27;90132;-86
2023/10/17 11:41:39;;;;;;;6.38;3.17;;;21.70;46.00;;;;;;5026469;27;90918;-85
2023/10/17 11:44:06;;;;;;;6.00;3.22;;;21.70;45.80;;;;;;5025266;27;87592;-86
2023/10/17 11:46:35;;;;;;;6.13;3.30;;;21.80;46.30;;;;;;5027292;27;87531;-85
2023/10/17 11:49:21;;;;;;;5.03;2.67;;;21.80;46.10;;;;;;5024655;27;90852;-85
2023/10/17 11:51:57;;;;;;;7.15;2.80;;;21.80;45.70;;;;;;5026569;27;91058;-85
2023/10/17 11:54:24;;;;;;;6.68;2.67;;;21.80;46.40;;;;;;5030225;27;87682;-84
2023/10/17 11:56:50;;;;;;;5.30;3.00;;;21.80;46.40;;;;;;5026714;27;88695;-85
2023/10/17 11:59:18;;;;;;;6.30;2.70;;;21.80;46.60;;;;;;5026199;27;89794;-86
2023/10/17 12:01:52;;;;;;;4.57;2.70;;;21.80;46.50;;;;;;5028410;27;87960;-85
2023/10/17 12:04:18;;;;;;;4.40;2.42;;;21.80;46.50;;;;;;5027605;27;87499;-85
2023/10/17 12:06:47;;;;;;;5.00;2.65;;;21.80;46.50;;;;;;5024574;27;90470;-85
2023/10/17 12:09:46;;;;;;;3.33;2.30;;;21.80;47.40;;;;;;5027588;27;88919;-86
2023/10/17 12:12:06;;;;;;;5.22;2.42;;;21.80;46.60;;;;;;5024957;27;92486;-85
2023/10/17 12:14:35;;;;;;;4.85;2.75;;;21.80;46.90;;;;;;5030879;27;88952;-91
2023/10/17 12:17:08;;;;;;;5.40;2.90;;;21.80;46.80;;;;;;5030615;27;87800;-87
2023/10/17 12:19:34;;;;;;;4.15;2.70;;;21.80;46.90;;;;;;5031100;27;87367;-86
2023/10/17 12:22:01;;;;;;;7.82;2.72;;;21.80;47.30;;;;;;5033279;27;89386;-87
2023/10/17 12:24:34;;;;;;;3.47;2.45;;;21.90;47.30;;;;;;5033140;27;87210;-85
2023/10/17 12:27:12;;;;;;;6.85;2.85;;;21.90;47.40;;;;;;5032688;28;87810;-90
2023/10/17 12:29:38;;;;;;;3.88;2.47;;;21.90;47.60;;;;;;5018599;27;88045;-88
2023/10/17 12:32:05;;;;;;;3.45;2.30;;;21.90;47.70;;;;;;5023862;27;88504;-88
2023/10/17 12:34:32;;;;;;;3.17;2.45;;;21.90;47.20;;;;;;5035873;27;87602;-88
2023/10/17 12:37:03;;;;;;;3.17;2.30;;;21.90;47.20;;;;;;5030836;27;89456;-87
2023/10/17 12:39:31;;;;;;;5.03;2.42;;;21.90;47.60;;;;;;5032583;27;90880;-88
2023/10/17 12:41:57;;;;;;;4.13;2.30;;;22.00;47.70;;;;;;5031068;28;90280;-87
2023/10/17 12:44:24;;;;;;;4.30;2.30;;;21.90;47.80;;;;;;5030893;27;87358;-86
2023/10/17 12:46:50;;;;;;;3.28;2.30;;;22.00;47.90;;;;;;5027557;27;88330;-86
2023/10/17 12:49:16;;;;;;;3.83;2.38;;;22.00;48.40;;;;;;5029012;27;89626;-87
2023/10/17 12:51:43;;;;;;;6.15;2.58;;;22.00;48.50;;;;;;5025435;27;90161;-87
2023/10/17 12:54:09;;;;;;;4.68;2.33;;;22.00;48.40;;;;;;5028314;27;87887;-87
2023/10/17 12:56:39;;;;;;;2.83;2.10;;;22.00;48.70;;;;;;5028519;27;86860;-86
2023/10/17 12:59:05;;;;;;;2.97;2.13;;;22.00;48.80;;;;;;5027166;27;89183;-86
2023/10/17 13:01:32;;;;;;;4.55;2.45;;;22.10;49.00;;;;;;5025436;27;89710;-88
2023/10/17 13:03:57;;;;;;;5.45;2.10;;;22.00;49.00;;;;;;5028677;27;88662;-86
2023/10/17 13:06:27;;;;;;;3.90;2.55;;;22.00;49.00;;;;;;5031877;27;91197;-87
2023/10/17 13:08:56;;;;;;;6.15;2.55;;;22.00;49.10;;;;;;5030418;27;93797;-87
2023/10/17 13:11:27;;;;;;;5.13;2.40;;;22.00;49.20;;;;;;5027056;27;89768;-88
2023/10/17 13:13:54;;;;;;;3.88;2.35;;;22.10;49.30;;;;;;5041259;27;88034;-86
2023/10/17 13:16:21;;;;;;;8.15;2.25;;;22.10;49.40;;;;;;5027764;27;87866;-87
2023/10/17 13:18:47;;;;;;;2.47;1.75;;;22.10;49.20;;;;;;5026249;27;90142;-86
2023/10/17 13:21:14;;;;;;;3.00;1.90;;;22.10;49.40;;;;;;5026142;27;91946;-87
2023/10/17 13:23:40;;;;;;;4.00;1.73;;;22.10;49.10;;;;;;5017597;27;87557;-90
2023/10/17 13:26:14;;;;;;;3.55;2.20;;;22.10;49.20;;;;;;5026849;27;89054;-87
2023/10/17 13:28:41;;;;;;;2.97;2.20;;;22.10;49.20;;;;;;5027330;27;89635;-89
2023/10/17 13:31:14;;;;;;;2.95;1.92;;;22.10;49.50;;;;;;5026045;27;90646;-88
2023/10/17 13:33:42;;;;;;;2.92;1.92;;;22.10;49.60;;;;;;5026355;27;87875;-86
2023/10/17 13:36:10;;;;;;;3.65;1.83;;;22.10;49.60;;;;;;5024295;27;88408;-88
2023/10/17 13:38:45;;;;;;;5.00;2.30;;;22.10;50.00;;;;;;5027390;27;88294;-88
2023/10/17 13:41:15;;;;;;;6.78;2.33;;;22.20;50.00;;;;;;5026922;27;90445;-89
2023/10/17 13:43:42;;;;;;;3.05;1.92;;;22.10;50.20;;;;;;5044661;27;87576;-89
2023/10/17 13:46:16;;;;;;;4.13;1.85;;;22.20;50.20;;;;;;5040880;27;87759;-87
2023/10/17 13:48:48;;;;;;;3.22;1.88;;;22.20;50.10;;;;;;5024413;27;89719;-87
2023/10/17 13:51:15;;;;;;;4.15;1.75;;;22.20;49.80;;;;;;5027119;27;89218;-87
2023/10/17 13:53:44;;;;;;;2.03;1.50;;;22.20;49.30;;;;;;5027022;27;89497;-85
2023/10/17 13:56:19;;;;;;;3.88;1.77;;;22.20;49.40;;;;;;5026636;27;88333;-89
2023/10/17 13:58:46;;;;;;;8.88;3.88;;;22.20;49.20;;;;;;5024871;27;91188;-87
2023/10/17 14:01:28;;;;;;;16.40;5.63;;;22.30;49.40;;;;;;5032818;27;90478;-88
2023/10/17 14:04:04;;;;;;;28.95;6.72;;;22.20;49.40;;;;;;5031816;28;87867;-90
2023/10/17 14:06:39;;;;;;;55.60;12.68;;;22.20;49.30;;;;;;5026458;27;89368;-88
2023/10/17 14:09:14;;;;;;;51.30;13.48;;;22.20;48.80;;;;;;5028501;27;89290;-86
2023/10/17 14:11:43;;;;;;;41.30;11.20;;;22.20;47.90;;;;;;5031706;28;89238;-92
2023/10/17 14:14:10;;;;;;;30.08;10.45;;;22.20;47.60;;;;;;5030527;27;87454;-89
2023/10/17 14:16:40;;;;;;;31.13;9.85;;;22.30;48.20;;;;;;5031052;27;88433;-88
2023/10/17 14:19:18;;;;;;;21.08;7.50;;;22.30;48.00;;;;;;5029916;27;88326;-87
2023/10/17 14:27:13;;;;;;;23.95;8.18;;;22.40;49.00;;;;;;5036608;27;87362;-87
2023/10/17 14:29:45;;;;;;;27.75;9.25;;;22.50;49.20;;;;;;5033864;28;91046;-87
2023/10/17 14:32:11;;;;;;;25.15;7.95;;;22.50;49.30;;;;;;5037568;27;90510;-91
2023/10/17 14:34:37;;;;;;;29.00;8.13;;;22.50;49.20;;;;;;5040638;27;88327;-86
2023/10/17 14:37:05;;;;;;;23.25;7.03;;;22.50;49.40;;;;;;5042678;27;88947;-88
2023/10/17 14:39:32;;;;;;;23.52;7.30;;;22.50;49.60;;;;;;5044708;27;88180;-87
2023/10/17 14:41:57;;;;;;;25.27;7.60;;;22.50;49.70;;;;;;5041176;27;87998;-86
2023/10/17 14:44:24;;;;;;;21.30;7.53;;;22.60;50.00;;;;;;5040030;28;88752;-85
2023/10/17 14:46:53;;;;;;;26.40;8.55;;;22.60;50.20;;;;;;5039746;28;88514;-86
2023/10/17 14:49:21;;;;;;;24.67;8.10;;;22.50;50.30;;;;;;5040895;27;89013;-90
2023/10/17 14:51:47;;;;;;;22.27;6.97;;;22.60;50.70;;;;;;5040230;27;87653;-89
2023/10/17 14:54:13;;;;;;;18.38;5.70;;;22.60;51.10;;;;;;5040809;27;87665;-91
2023/10/17 14:56:39;;;;;;;21.52;6.68;;;22.60;49.70;;;;;;5035676;28;87530;-86
2023/10/17 14:59:05;;;;;;;20.17;6.57;;;22.50;50.60;;;;;;5038481;27;89924;-87
2023/10/17 15:01:31;;;;;;;21.27;6.25;;;22.60;50.40;;;;;;5035675;27;90481;-89
2023/10/17 15:03:59;;;;;;;15.15;5.82;;;22.60;50.80;;;;;;5034041;27;87646;-90
2023/10/17 15:06:33;;;;;;;16.30;5.85;;;22.60;50.90;;;;;;5040337;27;87690;-91
2023/10/17 15:09:05;;;;;;;18.92;5.53;;;22.60;50.90;;;;;;5039211;27;94992;-90
2023/10/17 15:11:35;;;;;;;21.50;7.18;;;22.50;51.50;;;;;;5042544;27;89704;-91
2023/10/17 15:14:01;;;;;;;17.30;5.53;;;22.50;51.00;;;;;;5029830;27;87330;-90
2023/10/17 15:16:32;;;;;;;16.05;6.00;;;22.50;51.00;;;;;;5042097;28;89616;-93
2023/10/17 15:19:01;;;;;;;18.60;6.63;;;22.60;51.10;;;;;;5040679;28;90649;-91
2023/10/17 15:21:27;;;;;;;17.30;5.35;;;22.60;51.10;;;;;;5038702;27;90674;-91
2023/10/17 15:23:56;;;;;;;21.13;6.18;;;22.60;50.90;;;;;;5041687;27;87449;-91
2023/10/17 15:26:24;;;;;;;17.52;5.60;;;22.70;51.00;;;;;;5041672;27;87057;-91
2023/10/17 15:28:51;;;;;;;15.23;6.13;;;22.70;50.90;;;;;;5039513;27;88783;-91
2023/10/17 15:31:16;;;;;;;14.50;6.05;;;22.70;50.90;;;;;;5026562;27;89241;-91
2023/10/17 15:33:44;;;;;;;16.23;5.72;;;22.80;51.10;;;;;;5031681;27;88011;-90